Time;durP1;ratioP1;P1;durP2;ratioP2;P2;SDS_P1;SDS_P2;PMS_P1;PMS_P2;Temp;Humidity;BMP_temperature;BMP_pressure;BME280_temperature;BME280_humidity;BME280_pressure;Samples;Min_cycle;Max_cycle;Signal;HPM_P1;HPM_P2
2022/07/02 00:00:59;;;;;;;7.55;5.70;;;;;;;29.66;37.82;101047.97;5051378;28;20412;-65
2022/07/02 00:03:32;;;;;;;7.90;5.78;;;;;;;29.63;37.93;101052.09;5050153;28;20495;-65
2022/07/02 00:08:09;;;;;;;6.75;5.65;;;;;;;29.60;37.71;101040.94;5068536;28;20905;-63
2022/07/02 00:10:36;;;;;;;6.20;5.60;;;;;;;29.59;38.03;101042.06;5063298;28;20983;-63
2022/07/02 00:13:03;;;;;;;6.32;5.70;;;;;;;29.55;38.09;101041.81;5061956;28;20497;-64
2022/07/02 00:15:30;;;;;;;10.03;5.90;;;;;;;29.49;38.35;101040.22;5064476;28;20503;-63
2022/07/02 00:17:57;;;;;;;7.53;5.72;;;;;;;29.50;38.34;101039.94;5063585;28;20416;-63
2022/07/02 00:20:24;;;;;;;7.28;5.40;;;;;;;29.51;38.45;101040.75;5065270;28;20423;-63
2022/07/02 00:22:53;;;;;;;7.18;5.85;;;;;;;29.49;38.65;101038.31;5064806;28;21008;-65
2022/07/02 00:25:22;;;;;;;6.72;5.72;;;;;;;29.47;38.54;101040.50;5063276;28;20498;-64
2022/07/02 00:27:50;;;;;;;8.80;6.50;;;;;;;29.46;38.72;101043.53;5060501;28;20522;-63
2022/07/02 00:30:17;;;;;;;7.75;5.75;;;;;;;29.43;39.01;101038.66;5058181;28;20492;-63
2022/07/02 00:32:47;;;;;;;7.20;6.30;;;;;;;29.42;38.74;101037.03;5063374;28;20905;-63
2022/07/02 00:35:15;;;;;;;8.95;6.43;;;;;;;29.41;38.87;101038.16;5061819;28;20487;-62
2022/07/02 00:37:42;;;;;;;7.00;5.72;;;;;;;29.38;39.13;101035.97;5064460;28;20978;-63
2022/07/02 00:40:10;;;;;;;7.10;6.40;;;;;;;29.31;39.04;101036.31;5063592;28;20416;-64
2022/07/02 00:42:38;;;;;;;7.30;6.27;;;;;;;29.30;39.37;101029.25;5059823;28;20424;-64
2022/07/02 00:45:07;;;;;;;6.80;6.15;;;;;;;29.30;39.37;101040.16;5065099;28;20490;-65
2022/07/02 00:47:36;;;;;;;7.25;6.18;;;;;;;29.29;39.25;101033.06;5059750;28;20614;-64
2022/07/02 00:50:04;;;;;;;7.85;5.93;;;;;;;29.26;39.60;101039.94;5058772;28;20475;-66
2022/07/02 00:52:31;;;;;;;7.47;6.30;;;;;;;29.25;39.60;101042.94;5060511;28;20415;-64
2022/07/02 00:54:58;;;;;;;7.85;6.30;;;;;;;29.22;39.92;101040.78;5063016;28;21011;-65
2022/07/02 00:57:25;;;;;;;7.07;6.45;;;;;;;29.21;39.83;101034.50;5062141;28;20500;-66
2022/07/02 00:59:54;;;;;;;7.90;6.50;;;;;;;29.19;40.07;101030.44;5063531;28;20867;-65
2022/07/02 01:02:22;;;;;;;7.93;6.50;;;;;;;29.16;40.17;101038.09;5063181;28;20408;-65
2022/07/02 01:04:50;;;;;;;8.55;6.25;;;;;;;29.15;40.06;101036.47;5064803;28;20419;-65
2022/07/02 01:07:17;;;;;;;9.40;6.55;;;;;;;29.14;40.35;101040.28;5050360;28;20875;-65
2022/07/02 01:12:32;;;;;;;7.20;6.50;;;;;;;29.12;40.46;101038.94;5044181;28;20405;-67
2022/07/02 01:15:01;;;;;;;9.03;7.00;;;;;;;29.09;40.22;101043.03;5045616;28;20505;-65
2022/07/02 01:17:28;;;;;;;7.00;6.13;;;;;;;29.09;40.49;101028.59;5044860;28;20425;-66
2022/07/02 01:19:55;;;;;;;7.50;6.60;;;;;;;29.08;40.46;101027.78;5031760;28;20877;-66
2022/07/02 01:22:24;;;;;;;7.50;6.30;;;;;;;29.08;40.52;101032.41;5032306;28;20436;-65
2022/07/02 01:24:52;;;;;;;8.18;6.78;;;;;;;29.07;40.42;101025.34;5032148;28;20501;-65
2022/07/02 01:27:20;;;;;;;7.65;6.72;;;;;;;29.04;40.42;101034.88;5031694;28;20995;-65
2022/07/02 01:29:48;;;;;;;7.78;7.00;;;;;;;29.04;40.49;101028.63;5031631;28;20420;-67
2022/07/02 01:32:15;;;;;;;7.45;6.30;;;;;;;29.02;40.60;101041.75;5031775;28;20509;-65
2022/07/02 01:34:44;;;;;;;6.60;6.00;;;;;;;28.98;40.59;101036.03;5031399;28;20505;-65
2022/07/02 01:37:12;;;;;;;10.15;6.25;;;;;;;28.96;40.60;101041.78;5031657;28;20424;-65
2022/07/02 01:39:42;;;;;;;7.18;6.45;;;;;;;28.94;40.94;101045.91;5031445;28;20980;-65
2022/07/02 01:42:10;;;;;;;9.75;6.28;;;;;;;28.90;40.74;101044.84;5031577;28;20865;-65
2022/07/02 01:44:38;;;;;;;6.90;6.25;;;;;;;28.83;40.89;101044.34;5031751;28;20414;-65
2022/07/02 01:47:07;;;;;;;6.72;6.10;;;;;;;28.75;40.80;101048.50;5031884;28;20509;-65
2022/07/02 01:49:34;;;;;;;6.60;6.00;;;;;;;28.75;41.12;101043.84;5031398;28;20442;-65
2022/07/02 01:52:01;;;;;;;6.50;5.90;;;;;;;28.75;40.72;101045.78;5031589;28;20418;-64
2022/07/02 01:54:28;;;;;;;7.55;6.20;;;;;;;28.74;40.91;101047.69;5032121;28;20517;-65
2022/07/02 01:56:56;;;;;;;6.93;6.20;;;;;;;28.72;40.64;101055.34;5031298;28;20517;-65
2022/07/02 01:59:23;;;;;;;9.15;6.35;;;;;;;28.66;40.81;101066.56;5031329;28;20460;-65
2022/07/02 02:01:50;;;;;;;8.73;6.28;;;;;;;28.65;41.02;101070.38;5031090;28;20979;-65
2022/07/02 02:04:17;;;;;;;8.10;6.03;;;;;;;28.60;41.08;101068.53;5031389;28;20472;-65
2022/07/02 02:09:06;;;;;;;6.47;5.78;;;;;;;28.50;41.30;101063.09;5109364;27;20404;-65
2022/07/02 02:11:33;;;;;;;7.57;6.00;;;;;;;28.46;41.22;101068.31;5086663;28;20496;-66
2022/07/02 02:14:01;;;;;;;7.78;6.07;;;;;;;28.42;41.66;101067.25;5086698;28;21019;-65
2022/07/02 02:16:28;;;;;;;7.82;5.82;;;;;;;28.37;41.82;101076.25;5086931;28;20517;-65
2022/07/02 02:18:57;;;;;;;6.85;6.00;;;;;;;28.34;41.94;101074.09;5086901;28;20501;-65
2022/07/02 02:21:25;;;;;;;9.77;6.00;;;;;;;28.29;42.14;101070.56;5086613;28;20475;-66
2022/07/02 02:23:52;;;;;;;6.77;5.63;;;;;;;28.28;41.64;101071.69;5086476;28;20407;-65
2022/07/02 02:26:21;;;;;;;6.10;5.60;;;;;;;28.24;41.77;101074.16;5086209;28;20994;-65
2022/07/02 02:28:48;;;;;;;7.33;5.50;;;;;;;28.21;41.81;101071.97;5086325;28;20884;-64
2022/07/02 02:31:15;;;;;;;8.30;6.13;;;;;;;28.19;42.30;101082.34;5086476;28;20501;-65
2022/07/02 02:33:42;;;;;;;6.53;5.80;;;;;;;28.17;41.97;101087.28;5086542;28;20497;-65
2022/07/02 02:36:09;;;;;;;6.07;5.50;;;;;;;28.13;42.49;101080.75;5086236;28;20457;-64
2022/07/02 02:38:37;;;;;;;7.82;5.93;;;;;;;28.10;42.61;101087.56;5086870;28;20496;-65
2022/07/02 02:41:05;;;;;;;7.75;6.32;;;;;;;28.09;42.28;101090.56;5086458;28;20418;-65
2022/07/02 02:43:35;;;;;;;8.20;6.05;;;;;;;28.09;42.41;101094.13;5085991;28;20509;-65
2022/07/02 02:46:03;;;;;;;7.07;6.38;;;;;;;28.07;42.69;101098.22;5086174;28;20498;-64
2022/07/02 02:48:30;;;;;;;6.30;5.70;;;;;;;28.04;42.59;101102.31;5086084;28;20426;-64
2022/07/02 02:50:57;;;;;;;9.97;6.60;;;;;;;28.02;42.53;101102.59;5085850;28;20424;-65
2022/07/02 02:53:25;;;;;;;7.30;5.70;;;;;;;28.03;42.77;101103.41;5085883;28;20501;-65
2022/07/02 02:55:52;;;;;;;6.55;5.68;;;;;;;27.98;42.96;101114.31;5085914;28;20432;-65
2022/07/02 02:58:19;;;;;;;7.17;5.57;;;;;;;27.95;42.90;101118.41;5085639;28;20421;-65
2022/07/02 03:00:47;;;;;;;6.18;5.50;;;;;;;27.90;42.80;101126.59;5085891;28;20762;-65
2022/07/02 03:03:14;;;;;;;6.28;5.68;;;;;;;27.89;42.60;101121.38;5085897;28;20418;-64
2022/07/02 03:05:41;;;;;;;7.03;5.68;;;;;;;27.89;43.00;101118.66;5085864;28;20490;-64
2022/07/02 03:08:08;;;;;;;6.97;5.80;;;;;;;27.89;42.97;101121.38;5085603;28;20462;-64
2022/07/02 03:10:35;;;;;;;6.55;5.88;;;;;;;27.88;42.60;101126.03;5085618;28;20504;-65
2022/07/02 03:13:02;;;;;;;6.97;5.78;;;;;;;27.88;42.81;101128.75;5071377;28;20796;-65
2022/07/02 03:15:30;;;;;;;6.35;5.72;;;;;;;27.85;43.11;101123.84;5085535;28;20489;-65
2022/07/02 03:17:58;;;;;;;6.37;5.50;;;;;;;27.85;42.98;101126.56;5084937;28;20406;-65
2022/07/02 03:20:25;;;;;;;7.20;5.70;;;;;;;27.87;42.87;101126.31;5071425;28;20411;-65
2022/07/02 03:22:52;;;;;;;6.55;5.85;;;;;;;27.90;42.89;101128.50;5071766;28;20489;-67
2022/07/02 03:25:19;;;;;;;6.40;5.80;;;;;;;27.94;42.61;101124.13;5071702;28;20407;-65
2022/07/02 03:27:46;;;;;;;7.47;6.07;;;;;;;27.97;42.91;101124.41;5071388;28;20872;-65
2022/07/02 03:30:13;;;;;;;8.00;5.95;;;;;;;28.03;42.80;101128.72;5071968;28;20441;-65
2022/07/02 03:32:40;;;;;;;8.15;5.82;;;;;;;28.07;42.66;101125.47;5069200;28;20419;-64
2022/07/02 03:35:09;;;;;;;9.40;6.90;;;;;;;28.10;42.35;101125.72;5071042;28;20920;-65
2022/07/02 03:37:36;;;;;;;8.52;6.15;;;;;;;28.16;42.19;101126.50;5070983;28;20510;-64
2022/07/02 03:40:03;;;;;;;8.65;6.20;;;;;;;28.21;41.94;101126.50;5070882;28;20497;-65
2022/07/02 03:42:30;;;;;;;8.05;5.30;;;;;;;28.28;41.98;101126.22;5070881;28;20987;-65
2022/07/02 03:44:57;;;;;;;8.10;6.10;;;;;;;28.33;41.84;101143.34;5070903;28;20490;-65
2022/07/02 03:47:24;;;;;;;11.02;6.40;;;;;;;28.39;41.97;101134.03;5071034;28;20455;-64
2022/07/02 03:49:51;;;;;;;6.30;5.80;;;;;;;28.48;41.88;101149.84;5065985;28;20497;-65
2022/07/02 03:52:20;;;;;;;7.15;5.82;;;;;;;28.54;41.96;101151.47;5071392;28;20429;-65
2022/07/02 03:54:46;;;;;;;6.78;6.07;;;;;;;28.65;41.58;101144.03;5071359;28;20497;-65
2022/07/02 03:57:13;;;;;;;8.27;6.03;;;;;;;28.73;41.00;101138.00;5071105;28;20498;-65
2022/07/02 03:59:40;;;;;;;7.97;6.03;;;;;;;28.80;41.16;101138.50;5071289;28;20839;-65
2022/07/02 04:02:07;;;;;;;7.05;6.05;;;;;;;28.90;41.07;101152.09;5069147;28;20980;-65
2022/07/02 04:04:34;;;;;;;9.73;6.28;;;;;;;28.99;40.52;101155.03;5070691;28;20510;-64
2022/07/02 04:07:01;;;;;;;8.13;6.47;;;;;;;29.08;40.70;101152.50;5058421;28;20436;-65
2022/07/02 04:09:29;;;;;;;7.68;6.47;;;;;;;29.18;40.52;101149.75;5068973;28;20505;-65
2022/07/02 04:11:56;;;;;;;8.90;6.50;;;;;;;29.24;40.25;101159.50;5070810;28;20407;-65
2022/07/02 04:14:23;;;;;;;7.55;6.28;;;;;;;29.36;40.19;101156.44;5070114;28;20936;-65
2022/07/02 04:16:50;;;;;;;7.63;6.60;;;;;;;29.46;39.79;101156.34;5070860;28;20419;-65
2022/07/02 04:19:17;;;;;;;9.07;6.55;;;;;;;29.60;39.63;101163.88;5068973;28;20505;-65
2022/07/02 04:21:45;;;;;;;10.20;6.72;;;;;;;29.79;39.32;101164.00;5058496;28;20423;-66
2022/07/02 04:24:12;;;;;;;7.72;6.30;;;;;;;29.88;39.24;101160.34;5070337;28;20869;-65
2022/07/02 04:26:40;;;;;;;7.97;6.70;;;;;;;29.96;39.05;101158.06;5070093;28;20494;-65
2022/07/02 04:29:07;;;;;;;8.35;6.80;;;;;;;30.01;38.95;101161.56;5070542;28;20505;-65
2022/07/02 04:31:34;;;;;;;9.10;7.00;;;;;;;30.09;38.90;101169.13;5068675;28;20419;-66
2022/07/02 04:34:01;;;;;;;7.93;6.97;;;;;;;30.16;38.76;101174.28;5070065;28;20502;-66
2022/07/02 04:36:28;;;;;;;8.23;6.80;;;;;;;30.26;38.91;101176.84;5069448;28;20538;-65
2022/07/02 04:38:55;;;;;;;9.10;7.00;;;;;;;30.37;38.86;101176.78;5070300;28;20418;-66
2022/07/02 04:41:22;;;;;;;11.48;7.30;;;;;;;30.47;38.61;101179.41;5069733;28;20429;-65
2022/07/02 04:43:50;;;;;;;9.25;7.97;;;;;;;30.57;38.37;101181.19;5069304;28;20509;-66
2022/07/02 04:46:17;;;;;;;10.35;7.45;;;;;;;30.65;37.97;101186.81;5068321;28;20853;-65
2022/07/02 04:48:44;;;;;;;10.70;8.23;;;;;;;30.77;38.29;101197.31;5069516;28;20513;-66
2022/07/02 04:51:11;;;;;;;9.27;7.32;;;;;;;30.88;37.99;101200.72;5069799;28;20897;-65
2022/07/02 04:53:37;;;;;;;7.80;6.93;;;;;;;30.95;37.18;101201.19;5069525;28;20457;-65
2022/07/02 04:56:05;;;;;;;10.70;6.90;;;;;;;31.03;37.05;101206.00;5068203;28;20510;-66
2022/07/02 04:58:32;;;;;;;7.97;7.17;;;;;;;31.10;37.24;101197.44;5069635;28;20406;-65
2022/07/02 05:01:00;;;;;;;10.23;7.68;;;;;;;31.16;36.77;101203.66;5069805;28;20450;-65
2022/07/02 05:03:27;;;;;;;8.60;6.97;;;;;;;31.23;37.02;101213.09;5069185;28;20411;-66
2022/07/02 05:05:54;;;;;;;7.90;6.90;;;;;;;31.27;36.79;101202.38;5069745;28;20498;-67
2022/07/02 05:08:26;;;;;;;7.68;6.70;;;;;;;31.34;36.90;101213.75;5069733;28;20517;-66
2022/07/02 05:10:53;;;;;;;9.88;6.38;;;;;;;31.43;36.66;101211.97;5069149;28;20442;-66
2022/07/02 05:13:20;;;;;;;8.50;6.50;;;;;;;31.54;36.73;101212.63;5069270;28;20415;-66
2022/07/02 05:15:47;;;;;;;9.82;6.50;;;;;;;31.67;36.31;101213.00;5068900;28;20449;-66
2022/07/02 05:18:15;;;;;;;8.10;7.32;;;;;;;31.76;36.53;101209.25;5069159;28;20422;-65
2022/07/02 05:20:43;;;;;;;7.78;6.90;;;;;;;31.90;36.42;101213.94;5067498;28;20446;-66
2022/07/02 05:23:10;;;;;;;8.20;7.40;;;;;;;32.01;36.34;101215.38;5065605;28;20515;-67
2022/07/02 05:25:37;;;;;;;9.52;7.30;;;;;;;32.13;35.97;101221.22;5065039;28;20502;-68
2022/07/02 05:28:04;;;;;;;2.55;2.35;;;;;;;32.21;30.20;101214.22;5067187;28;20514;-64
2022/07/02 05:30:31;;;;;;;7.60;6.82;;;;;;;32.27;32.66;101221.22;5068627;28;20498;-64
2022/07/02 05:32:58;;;;;;;6.38;5.00;;;;;;;32.35;31.83;101219.69;5068376;28;20502;-65
2022/07/02 05:35:26;;;;;;;7.10;5.60;;;;;;;32.42;31.94;101233.03;5068453;28;20474;-65
2022/07/02 05:37:53;;;;;;;8.13;7.30;;;;;;;32.51;33.68;101229.25;5067934;28;20862;-65
2022/07/02 05:40:21;;;;;;;8.85;8.05;;;;;;;32.68;34.30;101222.34;5065577;28;20415;-68
2022/07/02 05:42:48;;;;;;;7.72;6.90;;;;;;;32.82;34.00;101225.88;5065970;28;20979;-66
2022/07/02 05:45:15;;;;;;;7.05;6.32;;;;;;;32.90;34.04;101222.41;5066161;28;20425;-66
2022/07/02 05:47:42;;;;;;;9.23;6.57;;;;;;;32.99;32.86;101224.41;5065927;28;20507;-66
2022/07/02 05:50:10;;;;;;;8.00;6.32;;;;;;;33.04;32.88;101221.56;5068458;28;20472;-66
2022/07/02 05:52:38;;;;;;;7.15;6.22;;;;;;;33.12;33.14;101220.81;5067684;28;20490;-67
2022/07/02 05:55:06;;;;;;;6.55;5.82;;;;;;;33.16;31.92;101224.59;5068389;28;20540;-66
2022/07/02 05:57:33;;;;;;;7.90;6.65;;;;;;;33.31;32.81;101227.00;5062205;28;20499;-67
2022/07/02 06:00:00;;;;;;;8.10;6.40;;;;;;;33.34;32.75;101229.09;5068536;28;20419;-67
2022/07/02 06:02:27;;;;;;;6.72;5.95;;;;;;;33.07;32.89;101224.50;5068872;28;20506;-66
2022/07/02 06:04:54;;;;;;;6.80;6.10;;;;;;;33.02;32.85;101232.03;5068964;28;20431;-62
2022/07/02 06:10:09;;;;;;;6.85;5.93;;;;;;;33.17;32.50;101234.47;5062661;28;20422;-64
2022/07/02 06:12:36;;;;;;;6.60;5.80;;;;;;;33.22;32.41;101241.78;5067542;28;20443;-62
2022/07/02 06:15:04;;;;;;;6.38;5.78;;;;;;;33.32;31.90;101236.84;5059044;28;20427;-64
2022/07/02 06:17:31;;;;;;;6.53;5.75;;;;;;;33.23;32.29;101240.66;5067255;28;20444;-64
2022/07/02 06:19:58;;;;;;;7.73;6.07;;;;;;;33.35;32.44;101249.16;5066887;28;20494;-65
2022/07/02 06:22:24;;;;;;;7.22;6.10;;;;;;;33.70;32.37;101249.44;5066669;28;20864;-65
2022/07/02 06:24:52;;;;;;;6.60;5.87;;;;;;;33.75;31.89;101252.03;5067643;28;20451;-65
2022/07/02 06:27:20;;;;;;;7.40;6.35;;;;;;;33.87;32.03;101256.94;5068006;28;20462;-65
2022/07/02 06:29:48;;;;;;;6.70;6.10;;;;;;;34.16;31.31;101264.72;5066588;28;21030;-64
2022/07/02 06:32:15;;;;;;;7.00;5.90;;;;;;;34.29;31.07;101260.28;5068016;28;20427;-65
2022/07/02 06:34:43;;;;;;;7.22;6.05;;;;;;;34.38;30.93;101252.06;5065606;28;20507;-66
2022/07/02 06:37:10;;;;;;;7.88;6.28;;;;;;;34.53;30.62;101248.03;5067663;28;20415;-65
2022/07/02 06:39:37;;;;;;;6.88;6.20;;;;;;;34.57;30.55;101246.25;5066988;28;20932;-64
2022/07/02 06:42:24;;;;;;;7.10;6.00;;;;;;;34.64;30.57;101235.59;5068110;28;20425;-65
2022/07/02 06:44:54;;;;;;;6.80;6.20;;;;;;;34.80;30.71;101238.72;5067709;28;20419;-65
2022/07/02 06:47:22;;;;;;;6.80;6.20;;;;;;;35.13;29.89;101249.28;5068115;28;20411;-65
2022/07/02 06:49:50;;;;;;;7.10;6.00;;;;;;;35.71;29.57;101255.44;5067094;28;20427;-63
2022/07/02 06:52:18;;;;;;;6.75;6.15;;;;;;;35.99;28.91;101269.66;5063621;28;20410;-63
2022/07/02 06:54:48;;;;;;;7.20;6.50;;;;;;;36.25;28.48;101263.25;5065901;28;20425;-62
2022/07/02 06:57:15;;;;;;;6.63;6.00;;;;;;;36.54;28.17;101257.75;5065713;28;20506;-62
2022/07/02 06:59:42;;;;;;;8.57;6.13;;;;;;;36.39;28.84;101246.47;5068415;28;20987;-64
2022/07/02 07:02:10;;;;;;;6.70;5.90;;;;;;;36.33;28.67;101230.09;5069347;28;20792;-65
2022/07/02 07:04:37;;;;;;;6.82;6.18;;;;;;;36.15;28.85;101232.09;5069975;28;20556;-65
2022/07/02 07:07:05;;;;;;;8.05;6.20;;;;;;;36.07;29.37;101241.22;5069454;28;20415;-65
2022/07/02 07:09:34;;;;;;;6.50;5.90;;;;;;;35.88;29.17;101238.03;5068956;28;20848;-64
2022/07/02 07:12:04;;;;;;;6.63;5.93;;;;;;;35.72;29.15;101243.28;5063108;28;20423;-65
2022/07/02 07:14:31;;;;;;;6.67;6.03;;;;;;;35.80;28.82;101245.22;5071273;28;20418;-65
2022/07/02 07:16:59;;;;;;;6.95;5.80;;;;;;;35.74;29.12;101239.03;5071628;28;20414;-65
2022/07/02 07:19:27;;;;;;;6.80;6.13;;;;;;;35.43;29.76;101242.00;5071079;28;20441;-65
2022/07/02 07:21:54;;;;;;;6.60;6.00;;;;;;;35.20;29.96;101236.69;5071279;28;20581;-64
2022/07/02 07:24:21;;;;;;;6.95;6.35;;;;;;;35.27;30.09;101247.19;5071269;28;20437;-65
2022/07/02 07:26:48;;;;;;;7.10;6.10;;;;;;;35.25;30.13;101257.75;5071531;28;20498;-64
2022/07/02 07:29:15;;;;;;;6.53;5.82;;;;;;;35.25;30.40;101266.03;5071302;28;20897;-65
2022/07/02 07:31:42;;;;;;;7.00;6.30;;;;;;;35.36;30.65;101258.22;5070926;28;20481;-64
2022/07/02 07:34:09;;;;;;;7.22;6.53;;;;;;;35.40;30.51;101257.25;5071685;28;20411;-65
2022/07/02 07:36:38;;;;;;;7.20;6.30;;;;;;;35.09;30.46;101251.88;5071049;28;20407;-65
2022/07/02 07:39:05;;;;;;;6.50;5.90;;;;;;;34.71;30.98;101260.75;5070956;28;20985;-64
2022/07/02 07:41:34;;;;;;;7.57;6.28;;;;;;;34.26;32.03;101256.19;5071318;28;20502;-65
2022/07/02 07:44:01;;;;;;;7.00;6.40;;;;;;;34.07;32.05;101255.63;5070872;28;20480;-64
2022/07/02 07:46:28;;;;;;;8.35;6.43;;;;;;;34.18;32.35;101248.75;5070683;28;20522;-64
2022/07/02 07:48:56;;;;;;;6.95;6.25;;;;;;;34.24;31.89;101261.22;5071078;28;20517;-64
2022/07/02 07:51:23;;;;;;;7.35;6.72;;;;;;;34.23;31.92;101254.09;5071070;28;20853;-64
2022/07/02 07:53:51;;;;;;;7.78;6.13;;;;;;;34.19;32.26;101252.28;5070450;28;20426;-64
2022/07/02 07:56:18;;;;;;;6.97;6.25;;;;;;;34.01;32.54;101243.91;5070608;28;20472;-64
2022/07/02 07:58:46;;;;;;;7.35;6.65;;;;;;;34.01;32.33;101251.38;5070777;28;20501;-64
2022/07/02 08:01:13;;;;;;;7.43;6.68;;;;;;;33.99;32.29;101259.94;5071029;28;20423;-64
2022/07/02 08:03:40;;;;;;;7.35;6.47;;;;;;;34.03;32.37;101260.94;5070284;28;20454;-64
2022/07/02 08:06:07;;;;;;;8.27;6.97;;;;;;;34.08;32.43;101254.47;5070457;28;20407;-64
2022/07/02 08:08:34;;;;;;;7.55;6.30;;;;;;;34.01;30.18;101254.13;5070843;28;20570;-63
2022/07/02 08:11:03;;;;;;;7.45;6.72;;;;;;;33.86;32.66;101258.91;5070645;28;20411;-64
2022/07/02 08:13:30;;;;;;;7.90;6.67;;;;;;;33.83;33.37;101255.97;5070909;28;20410;-63
2022/07/02 08:15:57;;;;;;;7.55;6.85;;;;;;;33.93;33.34;101260.41;5069675;28;20502;-61
2022/07/02 08:18:24;;;;;;;7.57;6.53;;;;;;;34.00;33.25;101266.28;5069314;28;20454;-63
2022/07/02 08:20:51;;;;;;;7.90;7.13;;;;;;;33.88;33.02;101256.66;5070221;28;20526;-63
2022/07/02 08:23:18;;;;;;;8.20;6.97;;;;;;;33.90;33.56;101267.34;5068809;28;21028;-64
2022/07/02 08:25:45;;;;;;;7.43;6.72;;;;;;;33.29;33.82;101264.13;5068313;28;20499;-63
2022/07/02 08:28:13;;;;;;;7.75;6.88;;;;;;;33.48;33.91;101267.53;5062635;28;20421;-64
2022/07/02 08:30:40;;;;;;;9.30;7.40;;;;;;;33.41;33.78;101266.34;5061280;28;20943;-63
2022/07/02 08:33:07;;;;;;;8.18;7.30;;;;;;;33.12;34.20;101265.59;5070288;28;20489;-63
2022/07/02 08:35:34;;;;;;;7.67;6.97;;;;;;;33.01;34.07;101264.19;5069875;28;20411;-63
2022/07/02 08:38:01;;;;;;;8.13;7.25;;;;;;;33.12;34.36;101265.59;5064105;28;20473;-63
2022/07/02 08:40:31;;;;;;;9.05;6.82;;;;;;;33.20;34.38;101260.50;5067967;28;20489;-63
2022/07/02 08:43:00;;;;;;;7.82;7.13;;;;;;;33.39;34.70;101265.84;5067349;28;20429;-64
2022/07/02 08:45:32;;;;;;;8.27;6.95;;;;;;;33.46;35.30;101267.03;5071551;28;21586;-63
2022/07/02 08:47:59;;;;;;;7.55;6.78;;;;;;;33.61;34.50;101262.28;5064739;28;20406;-64
2022/07/02 08:50:27;;;;;;;8.55;6.90;;;;;;;33.78;33.79;101267.09;5069389;28;21027;-63
2022/07/02 08:52:55;;;;;;;8.55;7.10;;;;;;;33.81;33.85;101258.22;5068318;28;20418;-63
2022/07/02 08:55:23;;;;;;;7.88;7.18;;;;;;;33.92;33.48;101259.56;5069457;28;20493;-63
2022/07/02 08:57:52;;;;;;;7.88;7.18;;;;;;;33.76;33.87;101263.84;5062349;28;20417;-63
2022/07/02 09:00:21;;;;;;;7.40;6.80;;;;;;;33.58;34.19;101260.94;5069459;28;20853;-63
2022/07/02 09:02:51;;;;;;;7.97;7.23;;;;;;;33.40;34.22;101270.19;5068973;28;20902;-63
2022/07/02 09:05:19;;;;;;;8.03;7.10;;;;;;;33.26;34.92;101267.50;5072131;28;20500;-63
2022/07/02 09:07:47;;;;;;;8.00;7.20;;;;;;;33.36;34.92;101270.00;5074715;28;20498;-63
2022/07/02 09:10:17;;;;;;;7.75;6.95;;;;;;;33.31;34.95;101275.63;5068787;28;20434;-63
2022/07/02 09:12:45;;;;;;;9.50;7.30;;;;;;;33.37;35.04;101268.91;5069333;28;20415;-62
2022/07/02 09:15:13;;;;;;;8.00;7.20;;;;;;;33.48;34.17;101273.00;5069370;28;20942;-64
2022/07/02 09:17:42;;;;;;;8.30;7.60;;;;;;;33.47;33.70;101274.13;5069436;28;20532;-63
2022/07/02 09:20:11;;;;;;;8.20;7.35;;;;;;;33.21;34.11;101271.19;5068976;28;20863;-63
2022/07/02 09:22:41;;;;;;;8.07;7.33;;;;;;;33.21;35.16;101262.94;5068571;28;20548;-62
2022/07/02 09:25:10;;;;;;;8.38;7.60;;;;;;;33.42;34.64;101270.69;5069192;28;20498;-63
2022/07/02 09:27:38;;;;;;;9.13;7.47;;;;;;;33.37;34.29;101268.06;5069553;28;20494;-63
2022/07/02 09:30:08;;;;;;;8.07;7.38;;;;;;;33.41;34.66;101266.34;5075549;28;20437;-63
2022/07/02 09:32:40;;;;;;;7.70;7.00;;;;;;;33.68;34.32;101266.22;5065055;28;20490;-63
2022/07/02 09:35:08;;;;;;;8.35;7.55;;;;;;;33.79;33.60;101265.97;5065687;28;20407;-63
2022/07/02 09:37:36;;;;;;;8.40;7.70;;;;;;;33.75;34.30;101265.00;5068538;28;20482;-63
2022/07/02 09:40:04;;;;;;;7.97;7.17;;;;;;;33.89;34.21;101255.53;5068054;28;20493;-64
2022/07/02 09:42:32;;;;;;;7.55;6.85;;;;;;;33.81;33.98;101263.72;5069384;28;20497;-63
2022/07/02 09:45:01;;;;;;;8.30;7.43;;;;;;;33.75;34.30;101265.00;5068289;28;20473;-64
2022/07/02 09:47:32;;;;;;;7.88;7.07;;;;;;;33.60;33.89;101269.72;5068184;28;20574;-63
2022/07/02 09:50:03;;;;;;;7.65;6.85;;;;;;;33.63;34.51;101268.28;5068327;28;20497;-63
2022/07/02 09:52:30;;;;;;;8.00;7.30;;;;;;;33.62;33.76;101258.38;5067885;28;20406;-64
2022/07/02 09:54:59;;;;;;;8.82;7.20;;;;;;;33.74;34.21;101250.41;5068617;28;20402;-64
2022/07/02 09:57:28;;;;;;;7.97;7.18;;;;;;;33.70;33.33;101249.44;5068877;28;20497;-63
2022/07/02 09:59:55;;;;;;;7.53;6.82;;;;;;;33.69;33.45;101253.28;5068831;28;20484;-63
2022/07/02 10:02:24;;;;;;;8.00;7.25;;;;;;;33.75;33.86;101243.00;5068555;28;20464;-63
2022/07/02 10:04:52;;;;;;;8.95;7.80;;;;;;;33.93;34.20;101236.47;5068946;28;20407;-62
2022/07/02 10:07:21;;;;;;;9.02;7.53;;;;;;;33.93;33.26;101236.47;5068904;28;20423;-64
2022/07/02 10:09:48;;;;;;;8.10;7.30;;;;;;;33.91;33.39;101233.22;5069242;28;20427;-63
2022/07/02 10:12:17;;;;;;;7.90;7.20;;;;;;;34.00;33.73;101238.75;5069282;28;20490;-65
2022/07/02 10:14:45;;;;;;;8.27;7.47;;;;;;;34.00;33.41;101245.06;5054352;28;20411;-64
2022/07/02 10:17:14;;;;;;;8.02;7.10;;;;;;;34.04;32.71;101231.50;5066797;28;20441;-63
2022/07/02 10:19:41;;;;;;;7.57;6.82;;;;;;;33.92;33.06;101237.56;5064668;28;20486;-63
2022/07/02 10:22:09;;;;;;;9.07;7.05;;;;;;;33.98;32.57;101227.25;5065631;28;20496;-62
2022/07/02 10:24:36;;;;;;;7.95;7.20;;;;;;;34.10;32.04;101224.72;5063614;28;20450;-65
2022/07/02 10:27:04;;;;;;;8.20;7.40;;;;;;;34.18;32.67;101223.19;5063433;28;20811;-65
2022/07/02 10:29:33;;;;;;;7.72;6.70;;;;;;;34.09;32.22;101223.91;5064256;28;20419;-63
2022/07/02 10:32:11;;;;;;;8.55;7.05;;;;;;;34.15;32.22;101215.50;5060075;28;20423;-62
2022/07/02 10:35:01;;;;;;;7.57;6.68;;;;;;;34.26;31.86;101216.88;5070479;28;20422;-62
2022/07/02 10:37:28;;;;;;;7.53;6.78;;;;;;;34.32;32.06;101217.53;5059064;28;20858;-63
2022/07/02 10:40:01;;;;;;;9.60;7.33;;;;;;;34.27;32.81;101213.00;5061150;28;20406;-63
2022/07/02 10:42:38;;;;;;;7.78;6.97;;;;;;;33.98;32.42;101213.50;5059737;28;20422;-63
2022/07/02 10:45:12;;;;;;;7.43;6.55;;;;;;;34.02;32.56;101209.78;5059353;28;20494;-63
2022/07/02 10:47:55;;;;;;;7.63;6.80;;;;;;;34.01;34.00;101210.13;5061624;28;20480;-63
2022/07/02 10:50:27;;;;;;;7.67;6.90;;;;;;;34.18;33.91;101210.22;5064706;28;20931;-64
2022/07/02 10:52:54;;;;;;;7.53;6.83;;;;;;;34.31;33.37;101202.97;5071656;28;20415;-62
2022/07/02 10:55:28;;;;;;;7.28;6.65;;;;;;;34.36;33.31;101202.84;5072578;28;20514;-62
2022/07/02 10:57:59;;;;;;;7.55;6.80;;;;;;;34.52;33.20;101194.09;5063754;28;21003;-63
2022/07/02 11:00:30;;;;;;;8.13;6.30;;;;;;;34.60;32.54;101196.06;5070285;28;20425;-63
2022/07/02 11:02:58;;;;;;;6.72;6.18;;;;;;;34.58;32.11;101196.41;5073474;28;20494;-63
2022/07/02 11:05:25;;;;;;;10.65;6.47;;;;;;;34.71;31.88;101194.66;5070077;28;20419;-63
2022/07/02 11:07:52;;;;;;;7.93;6.70;;;;;;;34.83;31.90;101194.84;5082517;28;20418;-65
2022/07/02 11:10:27;;;;;;;8.45;6.38;;;;;;;34.81;31.61;101188.84;5071232;28;20426;-62
2022/07/02 11:12:59;;;;;;;7.13;6.35;;;;;;;34.85;32.34;101189.81;5071641;28;20418;-63
2022/07/02 11:15:35;;;;;;;7.40;6.70;;;;;;;34.95;31.73;101185.94;5072033;28;20489;-63
2022/07/02 11:18:06;;;;;;;8.73;6.55;;;;;;;35.02;32.25;101180.75;5070875;28;20823;-63
2022/07/02 11:20:36;;;;;;;8.80;6.78;;;;;;;35.01;32.39;101178.31;5070838;28;20506;-64
2022/07/02 11:23:03;;;;;;;6.97;6.18;;;;;;;35.18;31.74;101177.47;5070995;28;20479;-63
2022/07/02 11:25:30;;;;;;;7.32;6.50;;;;;;;35.31;31.52;101182.03;5071514;28;20447;-63
2022/07/02 11:28:00;;;;;;;6.63;6.00;;;;;;;35.28;31.80;101176.38;5070331;28;20423;-63
2022/07/02 11:30:30;;;;;;;9.15;6.40;;;;;;;35.36;30.81;101173.56;5070543;28;20570;-62
2022/07/02 11:32:58;;;;;;;8.35;6.10;;;;;;;35.20;31.86;101165.03;5071503;28;20482;-63
2022/07/02 11:35:25;;;;;;;7.13;6.43;;;;;;;35.30;32.15;101163.88;5070662;28;20502;-62
2022/07/02 11:37:56;;;;;;;6.57;5.97;;;;;;;35.41;32.01;101156.88;5070704;28;20421;-63